Time;durP1;ratioP1;P1;durP2;ratioP2;P2;SDS_P1;SDS_P2;PMS_P1;PMS_P2;Temp;Humidity;BMP_temperature;BMP_pressure;BME280_temperature;BME280_humidity;BME280_pressure;Samples;Min_cycle;Max_cycle;Signal;HPM_P1;HPM_P2
2022/01/08 00:00:11;;;;;;;16.25;6.35;;;1.70;99.90;;;;;;5093576;28;20055;-71
2022/01/08 00:02:38;;;;;;;16.75;5.28;;;1.70;99.90;;;;;;5094243;28;20196;-70
2022/01/08 00:05:04;;;;;;;21.13;6.30;;;1.70;99.90;;;;;;5094765;28;20044;-72
2022/01/08 00:07:30;;;;;;;15.23;6.22;;;1.70;99.90;;;;;;5093291;28;20051;-72
2022/01/08 00:09:55;;;;;;;16.23;5.28;;;1.70;99.90;;;;;;5094513;28;20425;-71
2022/01/08 00:12:22;;;;;;;17.73;5.93;;;1.70;99.90;;;;;;5076894;28;20055;-71
2022/01/08 00:14:47;;;;;;;20.53;7.17;;;1.70;99.90;;;;;;5077234;28;20467;-72
2022/01/08 00:17:13;;;;;;;19.92;7.00;;;1.80;99.90;;;;;;5097029;28;20052;-71
2022/01/08 00:19:39;;;;;;;19.35;6.97;;;1.80;99.90;;;;;;5115374;28;20052;-71
2022/01/08 00:22:05;;;;;;;18.52;7.20;;;1.70;99.90;;;;;;5113833;28;20476;-70
2022/01/08 00:24:31;;;;;;;22.65;7.13;;;1.80;99.90;;;;;;5114859;28;20044;-71
2022/01/08 00:26:56;;;;;;;18.70;7.35;;;1.70;99.90;;;;;;5096783;28;20450;-70
2022/01/08 00:29:22;;;;;;;21.23;6.85;;;1.80;99.90;;;;;;5097069;28;20044;-71
2022/01/08 00:31:48;;;;;;;22.45;7.68;;;1.70;99.90;;;;;;5096452;28;20047;-71
2022/01/08 00:34:14;;;;;;;19.10;7.80;;;1.70;99.90;;;;;;5096601;28;20044;-71
2022/01/08 00:36:39;;;;;;;21.40;7.80;;;1.80;99.90;;;;;;5114117;28;20083;-71
2022/01/08 00:39:05;;;;;;;21.15;7.57;;;1.70;99.90;;;;;;5096617;28;20100;-71
2022/01/08 00:41:31;;;;;;;23.95;8.52;;;1.80;99.90;;;;;;5095894;28;20404;-71
2022/01/08 00:43:57;;;;;;;19.77;7.57;;;1.80;99.90;;;;;;5095570;28;20317;-71
2022/01/08 00:46:23;;;;;;;23.58;9.02;;;1.80;99.90;;;;;;5096295;28;20513;-71
2022/01/08 00:48:49;;;;;;;18.25;6.97;;;1.80;99.90;;;;;;5096191;28;20058;-71
2022/01/08 00:51:15;;;;;;;21.48;7.68;;;1.80;99.90;;;;;;5096299;28;20407;-70
2022/01/08 00:53:40;;;;;;;20.58;8.02;;;1.90;99.90;;;;;;5095875;28;20047;-71
2022/01/08 00:56:06;;;;;;;22.60;8.77;;;1.80;99.90;;;;;;5114202;28;20104;-71
2022/01/08 00:58:32;;;;;;;20.27;8.20;;;1.70;99.90;;;;;;5114115;28;20043;-71
2022/01/08 01:00:58;;;;;;;23.15;8.77;;;1.70;99.90;;;;;;5114117;28;20112;-71
2022/01/08 01:03:24;;;;;;;22.20;8.32;;;1.60;99.90;;;;;;5096274;28;20043;-72
2022/01/08 01:05:50;;;;;;;19.15;8.50;;;1.60;99.90;;;;;;5095700;28;20236;-71
2022/01/08 01:08:15;;;;;;;19.90;7.75;;;1.50;99.90;;;;;;5095608;28;20051;-70
2022/01/08 01:10:42;;;;;;;19.38;7.53;;;1.40;99.90;;;;;;5113868;28;20036;-71
2022/01/08 01:13:08;;;;;;;22.15;8.13;;;1.20;99.90;;;;;;5114362;28;20079;-71
2022/01/08 01:15:34;;;;;;;20.92;8.90;;;1.30;99.90;;;;;;5095121;28;20047;-71
2022/01/08 01:18:00;;;;;;;26.83;9.13;;;1.20;99.90;;;;;;5095473;28;20087;-71
2022/01/08 01:20:26;;;;;;;24.40;8.77;;;1.10;99.90;;;;;;5078661;28;20495;-71
2022/01/08 01:25:27;;;;;;;22.73;8.70;;;1.00;99.90;;;;;;5096437;28;20209;-72
2022/01/08 01:28:00;;;;;;;28.50;10.30;;;0.90;99.90;;;;;;5114280;28;20062;-71
2022/01/08 01:41:37;;;;;;;30.52;10.85;;;0.80;99.90;;;;;;5113674;28;20055;-71
2022/01/08 01:49:14;;;;;;;26.50;11.18;;;0.70;99.90;;;;;;5095857;28;20476;-71
2022/01/08 01:51:40;;;;;;;29.42;11.52;;;0.60;99.90;;;;;;5095416;28;20069;-72
2022/01/08 01:54:05;;;;;;;30.85;11.43;;;0.60;99.90;;;;;;5095041;28;20040;-71
2022/01/08 01:56:31;;;;;;;33.53;11.63;;;0.60;99.90;;;;;;5095145;28;20548;-71
2022/01/08 01:58:58;;;;;;;31.17;10.73;;;0.50;99.90;;;;;;5078296;28;20074;-71
2022/01/08 02:01:24;;;;;;;24.17;9.35;;;0.50;99.90;;;;;;5095020;28;20082;-70
2022/01/08 02:03:49;;;;;;;21.63;7.80;;;0.60;99.90;;;;;;5112925;28;20057;-71
2022/01/08 02:06:15;;;;;;;25.23;8.90;;;0.60;99.90;;;;;;5094593;28;20035;-70
2022/01/08 02:08:42;;;;;;;23.70;8.02;;;0.60;99.90;;;;;;5077952;28;20079;-72
2022/01/08 02:11:08;;;;;;;18.13;6.88;;;0.70;99.90;;;;;;5078256;28;20159;-71
2022/01/08 02:13:35;;;;;;;17.65;5.95;;;0.70;99.90;;;;;;5078201;28;20087;-72
2022/01/08 02:16:05;;;;;;;25.25;6.90;;;0.70;99.90;;;;;;5111443;28;20039;-71
2022/01/08 02:18:33;;;;;;;22.42;6.85;;;0.80;99.90;;;;;;5094572;28;20047;-70
2022/01/08 02:21:00;;;;;;;;;;;0.90;99.90;;;;;;5095070;28;20541;-71
2022/01/08 02:23:26;;;;;;;18.73;5.53;;;0.80;99.90;;;;;;5111997;28;19937;-71
2022/01/08 02:26:05;;;;;;;16.58;5.70;;;0.80;99.90;;;;;;5111391;28;20130;-70
2022/01/08 02:28:30;;;;;;;17.50;5.78;;;0.80;99.90;;;;;;5077864;28;20549;-71
2022/01/08 02:30:56;;;;;;;16.42;5.75;;;0.80;99.90;;;;;;5094363;28;20047;-71
2022/01/08 02:33:26;;;;;;;14.70;5.60;;;0.80;99.90;;;;;;5077968;28;20395;-71
2022/01/08 02:35:53;;;;;;;20.58;6.10;;;0.80;99.90;;;;;;5077850;28;20085;-71
2022/01/08 02:38:19;;;;;;;17.20;6.03;;;0.80;99.90;;;;;;5094767;28;20540;-71
2022/01/08 02:40:57;;;;;;;17.67;6.03;;;0.70;99.90;;;;;;5094464;28;20392;-72
2022/01/08 02:43:24;;;;;;;19.83;5.72;;;0.70;99.90;;;;;;5112956;28;20082;-71
2022/01/08 02:45:50;;;;;;;16.30;5.60;;;0.70;99.90;;;;;;5077896;28;20044;-72
2022/01/08 02:48:16;;;;;;;17.95;5.68;;;0.70;99.90;;;;;;5094695;28;20423;-72
2022/01/08 02:50:41;;;;;;;17.80;5.80;;;0.60;99.90;;;;;;5077674;28;20051;-72
2022/01/08 02:53:07;;;;;;;20.50;6.40;;;0.60;99.90;;;;;;5077317;28;20051;-72
2022/01/08 02:55:33;;;;;;;23.50;7.13;;;0.70;99.90;;;;;;5094514;28;20054;-72
2022/01/08 02:57:59;;;;;;;16.30;5.68;;;0.60;99.90;;;;;;5112526;28;20040;-71
2022/01/08 03:00:25;;;;;;;20.20;6.32;;;0.50;99.90;;;;;;5112246;28;20080;-71
2022/01/08 03:02:52;;;;;;;20.10;7.07;;;0.50;99.90;;;;;;5077328;28;20048;-72
2022/01/08 03:05:18;;;;;;;22.95;6.38;;;0.60;99.90;;;;;;5129241;28;20052;-71
2022/01/08 03:07:45;;;;;;;20.85;6.88;;;0.60;99.90;;;;;;5080798;28;20120;-71
2022/01/08 03:10:14;;;;;;;18.38;6.97;;;0.60;99.90;;;;;;5098516;28;20051;-71
2022/01/08 03:12:42;;;;;;;23.02;7.50;;;0.60;99.90;;;;;;5115850;28;20086;-71
2022/01/08 03:15:17;;;;;;;25.55;7.00;;;0.70;99.90;;;;;;5115924;28;20454;-71
2022/01/08 03:17:43;;;;;;;21.25;7.60;;;0.60;99.90;;;;;;5115958;28;20066;-70
2022/01/08 03:20:13;;;;;;;24.60;7.32;;;0.70;99.90;;;;;;5115828;28;20047;-71
2022/01/08 03:22:43;;;;;;;21.90;7.90;;;0.60;99.90;;;;;;5115496;28;20054;-71
2022/01/08 03:25:10;;;;;;;22.95;7.35;;;0.60;99.90;;;;;;5097697;28;20048;-70
2022/01/08 03:27:36;;;;;;;22.52;7.78;;;0.50;99.90;;;;;;5116147;28;20088;-71
2022/01/08 03:30:04;;;;;;;20.58;6.93;;;0.50;99.90;;;;;;5131654;27;20059;-71
2022/01/08 03:32:30;;;;;;;20.27;8.18;;;0.40;99.90;;;;;;5131791;27;20051;-71
2022/01/08 03:34:56;;;;;;;25.67;7.20;;;0.50;99.90;;;;;;5096930;28;20051;-71
2022/01/08 03:37:22;;;;;;;24.05;8.18;;;0.50;99.90;;;;;;5097330;28;20051;-71
2022/01/08 03:39:47;;;;;;;23.90;7.95;;;0.40;99.90;;;;;;5115455;28;20173;-71
2022/01/08 03:42:13;;;;;;;20.75;7.13;;;0.50;99.90;;;;;;5115708;28;20048;-71
2022/01/08 03:44:39;;;;;;;28.05;8.18;;;0.50;99.90;;;;;;5115536;28;20046;-71
2022/01/08 03:47:23;;;;;;;26.90;8.43;;;0.50;99.90;;;;;;5115471;28;20421;-70
2022/01/08 03:49:49;;;;;;;27.38;9.13;;;0.50;99.90;;;;;;5114764;28;20048;-70
2022/01/08 03:52:15;;;;;;;22.80;8.25;;;0.60;99.90;;;;;;5114991;28;20446;-71
2022/01/08 03:54:41;;;;;;;26.08;9.50;;;0.70;99.90;;;;;;5097168;28;20056;-70
2022/01/08 03:57:07;;;;;;;31.83;9.27;;;0.80;99.90;;;;;;5115260;28;20044;-70
2022/01/08 03:59:33;;;;;;;28.88;10.10;;;0.80;99.90;;;;;;5115136;28;20051;-70
2022/01/08 04:01:59;;;;;;;31.13;10.10;;;0.80;99.90;;;;;;5114907;28;20043;-70
2022/01/08 04:04:25;;;;;;;28.95;9.65;;;0.90;99.90;;;;;;5079822;28;20501;-70
2022/01/08 04:06:51;;;;;;;34.03;10.43;;;0.90;99.90;;;;;;5079940;28;20130;-71
2022/01/08 04:09:17;;;;;;;31.58;9.65;;;0.80;99.90;;;;;;5114460;28;20329;-70
2022/01/08 04:11:43;;;;;;;25.13;9.23;;;0.80;99.90;;;;;;5096872;28;20054;-70
2022/01/08 04:14:09;;;;;;;34.90;10.50;;;0.80;99.90;;;;;;5115563;28;20039;-70
2022/01/08 04:16:39;;;;;;;25.77;9.93;;;0.80;99.90;;;;;;5096684;28;20055;-70
2022/01/08 04:19:04;;;;;;;24.20;8.95;;;0.80;99.90;;;;;;5113268;28;20126;-70
2022/01/08 04:24:06;;;;;;;26.90;9.85;;;0.60;99.90;;;;;;5114696;28;20051;-70
2022/01/08 04:26:32;;;;;;;27.45;9.13;;;0.60;99.90;;;;;;5096914;28;20493;-70
2022/01/08 04:28:58;;;;;;;24.27;9.02;;;0.50;99.90;;;;;;5114913;28;20059;-72
2022/01/08 04:31:24;;;;;;;27.23;8.70;;;0.40;99.90;;;;;;5079144;28;20035;-70
2022/01/08 04:33:51;;;;;;;23.60;8.90;;;0.40;99.90;;;;;;5130753;27;20051;-71
2022/01/08 04:36:17;;;;;;;29.52;9.30;;;0.40;99.90;;;;;;5096694;28;20043;-70
2022/01/08 04:38:43;;;;;;;30.48;8.55;;;0.40;99.90;;;;;;5096445;28;20039;-70
2022/01/08 04:41:10;;;;;;;28.15;9.00;;;0.40;99.90;;;;;;5114228;28;20050;-70
2022/01/08 04:43:37;;;;;;;23.48;8.18;;;0.40;99.90;;;;;;5079360;28;20051;-72
2022/01/08 04:46:04;;;;;;;26.23;8.23;;;0.30;99.90;;;;;;5130473;27;20047;-72
2022/01/08 04:48:30;;;;;;;21.80;7.57;;;0.40;99.90;;;;;;5114490;28;20043;-71
2022/01/08 04:50:56;;;;;;;22.80;7.78;;;0.30;99.90;;;;;;5079027;28;20091;-71
2022/01/08 04:53:22;;;;;;;27.52;7.85;;;0.30;99.90;;;;;;5078974;28;20048;-71
2022/01/08 04:55:48;;;;;;;21.55;6.72;;;0.30;99.90;;;;;;5113926;28;20044;-71
2022/01/08 04:58:14;;;;;;;24.52;7.15;;;0.30;99.90;;;;;;5095822;28;20185;-71
2022/01/08 05:00:40;;;;;;;24.33;7.22;;;0.30;99.90;;;;;;5095764;28;20050;-71
2022/01/08 05:03:06;;;;;;;26.02;7.57;;;0.20;99.90;;;;;;5113291;28;20149;-71
2022/01/08 05:05:32;;;;;;;25.13;6.60;;;0.20;99.90;;;;;;5095916;28;20123;-70
2022/01/08 05:07:58;;;;;;;18.60;6.18;;;0.20;99.90;;;;;;5078879;28;20498;-70
2022/01/08 05:10:24;;;;;;;24.02;7.35;;;0.30;99.90;;;;;;5095513;28;20048;-70
2022/01/08 05:12:50;;;;;;;16.85;6.15;;;0.30;99.90;;;;;;5130601;27;20050;-70
2022/01/08 05:15:17;;;;;;;25.25;6.50;;;0.30;99.90;;;;;;5095826;28;20051;-70
2022/01/08 05:17:45;;;;;;;20.02;6.25;;;0.20;99.90;;;;;;5095447;28;20055;-70
2022/01/08 05:20:12;;;;;;;25.15;7.43;;;0.30;99.90;;;;;;5113960;28;20043;-71
2022/01/08 05:22:50;;;;;;;20.92;6.63;;;0.20;99.90;;;;;;5113532;28;20051;-70
2022/01/08 05:25:16;;;;;;;;;;;0.10;99.90;;;;;;5115062;27;20052;-71
2022/01/08 05:27:42;;;;;;;28.23;8.23;;;0.30;99.90;;;;;;5113583;28;19967;-70
2022/01/08 05:30:09;;;;;;;22.52;7.68;;;0.20;99.90;;;;;;5113325;28;20079;-70
2022/01/08 05:32:34;;;;;;;23.37;8.13;;;0.10;99.90;;;;;;5095157;28;20051;-70
2022/01/08 05:35:00;;;;;;;27.55;7.32;;;0.20;99.90;;;;;;5078320;28;20055;-70
2022/01/08 05:37:26;;;;;;;24.98;8.30;;;0.10;99.90;;;;;;5129391;27;20035;-70
2022/01/08 05:39:53;;;;;;;26.85;8.63;;;0.00;99.90;;;;;;5113348;28;20077;-70
2022/01/08 05:42:19;;;;;;;29.35;9.50;;;0.00;99.90;;;;;;5095665;28;20047;-70
2022/01/08 05:44:45;;;;;;;23.50;9.05;;;0.00;99.90;;;;;;5111970;28;20047;-70
2022/01/08 05:47:11;;;;;;;27.38;9.55;;;0.10;99.90;;;;;;5129456;27;20070;-71
2022/01/08 05:49:37;;;;;;;25.08;9.15;;;0.00;99.90;;;;;;5095082;28;20066;-71
2022/01/08 05:52:03;;;;;;;26.67;9.52;;;0.00;99.90;;;;;;5095037;28;20108;-70
2022/01/08 05:54:29;;;;;;;28.52;8.95;;;-0.10;99.90;;;;;;5078124;28;20428;-71
2022/01/08 05:56:55;;;;;;;29.95;9.38;;;-0.10;99.90;;;;;;5094683;28;20130;-71
2022/01/08 05:59:26;;;;;;;25.73;9.27;;;-0.20;99.90;;;;;;5078684;28;20051;-71
2022/01/08 06:01:56;;;;;;;27.05;8.48;;;-0.30;99.90;;;;;;5112903;28;20123;-72
2022/01/08 06:04:22;;;;;;;30.98;9.38;;;-0.30;99.90;;;;;;5113023;28;20116;-72
2022/01/08 06:06:48;;;;;;;26.38;9.20;;;-0.30;99.90;;;;;;5095157;28;20178;-72
2022/01/08 06:09:15;;;;;;;30.52;9.93;;;-0.40;99.90;;;;;;5112776;28;20127;-72
2022/01/08 06:11:41;;;;;;;24.88;8.52;;;-0.40;99.90;;;;;;5113636;28;20333;-72
2022/01/08 06:14:06;;;;;;;25.42;7.65;;;-0.40;99.90;;;;;;5094632;28;20243;-70
2022/01/08 06:16:35;;;;;;;25.08;8.38;;;-0.50;99.90;;;;;;5094568;28;20361;-72
2022/01/08 06:19:03;;;;;;;27.55;9.02;;;-0.40;99.90;;;;;;5094281;28;20104;-72
2022/01/08 06:21:30;;;;;;;26.67;9.45;;;-0.40;99.90;;;;;;5095237;28;20055;-72
2022/01/08 06:23:55;;;;;;;24.85;8.02;;;-0.40;99.90;;;;;;5094652;28;20047;-71
2022/01/08 06:26:21;;;;;;;22.20;7.80;;;-0.40;99.90;;;;;;5095279;28;20445;-70
2022/01/08 06:28:49;;;;;;;24.52;8.10;;;-0.40;99.90;;;;;;5094654;28;20058;-70
2022/01/08 06:31:15;;;;;;;;;;;-0.40;99.90;;;;;;5113045;28;20480;-71
2022/01/08 06:33:41;;;;;;;24.00;7.35;;;-0.40;99.90;;;;;;5112744;28;20316;-71
2022/01/08 06:36:06;;;;;;;26.00;8.07;;;-0.50;99.90;;;;;;5111293;28;20183;-71
2022/01/08 06:38:32;;;;;;;23.10;7.95;;;-0.50;99.90;;;;;;5094257;28;20139;-71
2022/01/08 06:40:58;;;;;;;29.60;8.50;;;-0.50;99.90;;;;;;5112967;28;20072;-72
2022/01/08 06:43:24;;;;;;;27.92;8.60;;;-0.50;99.90;;;;;;5082242;28;20427;-71
2022/01/08 06:45:49;;;;;;;26.20;8.27;;;-0.60;99.90;;;;;;5098839;28;20047;-71
2022/01/08 06:48:15;;;;;;;27.77;7.75;;;-0.60;99.90;;;;;;5098177;28;20394;-71
2022/01/08 06:50:41;;;;;;;24.08;7.60;;;-0.60;99.90;;;;;;5081689;28;20088;-71
2022/01/08 06:53:07;;;;;;;27.15;8.15;;;-0.60;99.90;;;;;;5116768;28;20051;-71
2022/01/08 06:55:33;;;;;;;24.63;8.20;;;-0.60;99.90;;;;;;5116650;28;20035;-71
2022/01/08 06:57:59;;;;;;;22.42;8.27;;;-0.70;99.90;;;;;;5133244;27;20115;-72
2022/01/08 07:00:25;;;;;;;30.33;8.73;;;-0.70;99.90;;;;;;5081452;28;20071;-72
2022/01/08 07:02:51;;;;;;;24.40;8.40;;;-0.70;99.90;;;;;;5116082;28;20328;-71
2022/01/08 07:05:17;;;;;;;23.60;8.30;;;-0.70;99.90;;;;;;5097803;28;20054;-72
2022/01/08 07:07:42;;;;;;;29.25;7.70;;;-0.70;99.90;;;;;;5116078;28;20043;-71
2022/01/08 07:10:08;;;;;;;30.17;7.13;;;-0.70;99.90;;;;;;5097907;28;20377;-72
2022/01/08 07:12:35;;;;;;;19.63;7.03;;;-0.70;99.90;;;;;;5115027;28;20130;-72
2022/01/08 07:15:01;;;;;;;25.27;7.50;;;-0.70;99.90;;;;;;5098263;28;20480;-72
2022/01/08 07:17:27;;;;;;;27.35;7.40;;;-0.80;99.90;;;;;;5131905;27;20051;-72
2022/01/08 07:19:53;;;;;;;25.52;7.97;;;-0.80;99.90;;;;;;5116439;28;20372;-72
2022/01/08 07:22:19;;;;;;;21.10;6.93;;;-0.80;99.90;;;;;;5115835;28;20048;-72
2022/01/08 07:24:45;;;;;;;21.40;7.55;;;-0.80;99.90;;;;;;5115968;28;20058;-72
2022/01/08 07:27:10;;;;;;;30.58;8.35;;;-0.80;99.90;;;;;;5131970;27;20130;-72
2022/01/08 07:29:36;;;;;;;26.27;8.18;;;-0.70;99.90;;;;;;5097512;28;20475;-72
2022/01/08 07:32:02;;;;;;;25.08;7.82;;;-0.80;99.90;;;;;;5115814;28;20079;-72
2022/01/08 07:34:28;;;;;;;23.38;7.28;;;-0.80;99.90;;;;;;5115896;28;20071;-72
2022/01/08 07:36:54;;;;;;;21.92;7.50;;;-0.80;99.90;;;;;;5080635;28;20036;-73
2022/01/08 07:39:20;;;;;;;24.90;7.20;;;-0.80;99.90;;;;;;5115212;27;20040;-72
2022/01/08 07:41:46;;;;;;;25.50;6.68;;;-0.70;99.90;;;;;;5115937;28;20434;-72
2022/01/08 07:44:11;;;;;;;23.50;6.75;;;-0.70;99.90;;;;;;5115844;28;20052;-72
2022/01/08 07:46:37;;;;;;;19.83;6.47;;;-0.70;99.90;;;;;;5080861;28;20459;-73
2022/01/08 07:49:03;;;;;;;23.48;6.95;;;-0.60;99.90;;;;;;5115782;28;20044;-72
2022/01/08 07:51:29;;;;;;;27.52;7.68;;;-0.60;99.90;;;;;;5097797;28;20357;-72
2022/01/08 07:53:54;;;;;;;20.17;6.00;;;-0.60;99.90;;;;;;5115140;28;20480;-72
2022/01/08 07:56:20;;;;;;;26.27;6.45;;;-0.60;99.90;;;;;;5097781;28;20040;-73
2022/01/08 07:58:46;;;;;;;31.20;6.75;;;-0.60;99.90;;;;;;5115892;28;20051;-73
2022/01/08 08:01:11;;;;;;;21.50;6.28;;;-0.50;99.90;;;;;;5097177;28;20502;-73
2022/01/08 08:03:37;;;;;;;20.70;6.13;;;-0.40;99.90;;;;;;5080489;28;20047;-73
2022/01/08 08:06:03;;;;;;;23.88;6.65;;;-0.40;99.90;;;;;;5080273;28;20039;-73
2022/01/08 08:08:29;;;;;;;24.05;6.93;;;-0.40;99.90;;;;;;5096787;28;20123;-73
2022/01/08 08:10:55;;;;;;;23.08;6.80;;;-0.40;99.90;;;;;;5097071;28;20048;-73
2022/01/08 08:13:22;;;;;;;27.48;7.65;;;-0.30;99.90;;;;;;5096854;28;20042;-73
2022/01/08 08:15:49;;;;;;;25.67;7.65;;;-0.30;99.90;;;;;;5114960;28;20122;-74
2022/01/08 08:18:14;;;;;;;24.65;8.45;;;-0.20;99.90;;;;;;5076395;28;20135;-74
2022/01/08 08:20:41;;;;;;;26.38;7.00;;;-0.30;99.90;;;;;;5093533;28;20115;-74
2022/01/08 08:23:07;;;;;;;26.60;7.97;;;-0.20;99.90;;;;;;5094365;28;20046;-74
2022/01/08 08:25:33;;;;;;;24.27;7.40;;;-0.10;99.90;;;;;;5094104;28;20056;-74
2022/01/08 08:27:58;;;;;;;29.83;7.53;;;-0.10;99.90;;;;;;5093423;28;20047;-73
2022/01/08 08:30:24;;;;;;;22.23;7.32;;;0.00;99.90;;;;;;5093592;28;20059;-74
2022/01/08 08:32:50;;;;;;;23.10;7.28;;;-0.10;99.90;;;;;;5094417;28;20052;-73
2022/01/08 08:35:17;;;;;;;33.72;8.98;;;-0.10;99.90;;;;;;5093085;28;20048;-73
2022/01/08 08:37:43;;;;;;;27.75;8.18;;;0.10;99.90;;;;;;5076551;28;20457;-73
2022/01/08 08:40:12;;;;;;;26.08;7.25;;;0.10;99.90;;;;;;5076156;28;20119;-73
2022/01/08 08:42:38;;;;;;;29.08;8.13;;;0.10;99.90;;;;;;5094131;28;20051;-73
2022/01/08 08:45:05;;;;;;;27.35;8.73;;;0.20;99.90;;;;;;5094628;28;20360;-73
2022/01/08 08:47:32;;;;;;;28.88;9.32;;;0.40;99.90;;;;;;5094254;28;20509;-74
2022/01/08 08:49:58;;;;;;;29.42;10.45;;;0.50;99.90;;;;;;5076248;28;20055;-73
2022/01/08 08:52:24;;;;;;;25.85;8.93;;;0.60;99.90;;;;;;5075831;28;20686;-73
2022/01/08 08:54:51;;;;;;;27.88;9.73;;;0.60;99.90;;;;;;5076417;28;20048;-74
2022/01/08 08:57:17;;;;;;;27.67;10.27;;;0.70;99.90;;;;;;5076352;28;20087;-74
2022/01/08 08:59:42;;;;;;;28.92;10.82;;;0.80;99.90;;;;;;5093199;28;20075;-72
2022/01/08 09:02:08;;;;;;;31.23;11.57;;;0.80;99.90;;;;;;5092881;28;20109;-72
2022/01/08 09:04:36;;;;;;;38.10;10.60;;;0.80;99.90;;;;;;5091464;28;20058;-72
2022/01/08 09:07:05;;;;;;;38.97;13.40;;;0.90;99.90;;;;;;5092431;28;20048;-72
2022/01/08 09:09:31;;;;;;;32.22;10.95;;;0.90;99.90;;;;;;5075334;28;20109;-73
2022/01/08 09:11:57;;;;;;;33.65;11.50;;;1.00;99.90;;;;;;5058891;28;20056;-72
2022/01/08 09:14:23;;;;;;;29.77;10.95;;;1.00;99.90;;;;;;5093654;28;20514;-71
2022/01/08 09:16:52;;;;;;;34.58;12.13;;;1.00;99.90;;;;;;5075433;28;20051;-72
2022/01/08 09:19:19;;;;;;;33.47;11.75;;;1.10;99.90;;;;;;5092164;28;20146;-73
2022/01/08 09:21:46;;;;;;;38.88;12.15;;;1.10;99.90;;;;;;5092365;28;20048;-74
2022/01/08 09:24:12;;;;;;;33.22;11.05;;;1.20;99.90;;;;;;5092285;28;20442;-73
2022/01/08 09:26:38;;;;;;;38.13;11.35;;;1.10;99.90;;;;;;5092881;28;20364;-72
2022/01/08 09:29:04;;;;;;;28.95;10.60;;;1.10;99.90;;;;;;5092382;28;20499;-72
2022/01/08 09:31:32;;;;;;;38.90;11.45;;;1.10;99.90;;;;;;5074786;28;20044;-73
2022/01/08 09:33:59;;;;;;;32.78;11.60;;;1.20;99.90;;;;;;5093280;28;20048;-73
2022/01/08 09:36:25;;;;;;;33.85;11.93;;;1.20;99.90;;;;;;5092039;28;20048;-74
2022/01/08 09:38:52;;;;;;;31.88;11.52;;;1.10;99.90;;;;;;5074826;28;20118;-73
2022/01/08 09:41:18;;;;;;;31.17;11.63;;;1.10;99.90;;;;;;5091682;28;20044;-73
2022/01/08 09:43:44;;;;;;;28.75;12.02;;;1.10;99.90;;;;;;5092324;28;20044;-72
2022/01/08 09:46:10;;;;;;;33.17;11.98;;;1.10;99.90;;;;;;5093457;28;20502;-72
2022/01/08 09:48:36;;;;;;;31.30;11.02;;;1.20;99.90;;;;;;5091898;28;20406;-73
2022/01/08 09:51:02;;;;;;;29.20;11.10;;;1.20;99.90;;;;;;5075010;28;20040;-73
2022/01/08 09:53:27;;;;;;;34.70;12.32;;;1.10;99.90;;;;;;5074826;28;20048;-72
2022/01/08 09:55:53;;;;;;;33.42;12.07;;;1.20;99.90;;;;;;5075448;28;20047;-73
2022/01/08 09:58:19;;;;;;;34.97;11.75;;;1.30;99.90;;;;;;5091635;28;20123;-71
2022/01/08 10:00:46;;;;;;;29.15;12.82;;;1.30;99.90;;;;;;5092368;28;20187;-72
2022/01/08 10:03:24;;;;;;;31.08;11.70;;;1.30;99.90;;;;;;5091485;28;20048;-71
2022/01/08 10:05:55;;;;;;;28.77;11.38;;;1.50;99.90;;;;;;5074595;28;20353;-72
2022/01/08 10:08:29;;;;;;;26.77;10.82;;;1.50;99.90;;;;;;5058868;28;20051;-73
2022/01/08 10:11:01;;;;;;;26.10;9.68;;;1.70;99.90;;;;;;5075083;28;20449;-71
2022/01/08 10:13:38;;;;;;;29.08;11.93;;;1.80;99.90;;;;;;5093003;28;20090;-71
2022/01/08 10:18:56;;;;;;;29.45;11.40;;;1.90;99.90;;;;;;5091108;28;20401;-73
2022/01/08 10:21:28;;;;;;;25.42;9.55;;;1.90;99.90;;;;;;5091244;28;20105;-73
2022/01/08 10:23:56;;;;;;;36.15;11.70;;;2.10;99.90;;;;;;5091968;28;20108;-72
2022/01/08 10:26:33;;;;;;;25.15;10.35;;;2.20;99.90;;;;;;5091427;28;20091;-72
2022/01/08 10:29:01;;;;;;;29.50;10.07;;;2.30;99.90;;;;;;5091867;28;20043;-71
2022/01/08 10:31:31;;;;;;;28.33;10.73;;;2.40;99.90;;;;;;5092897;28;20285;-72
2022/01/08 10:34:00;;;;;;;38.22;10.10;;;2.50;99.90;;;;;;5090910;28;20044;-71
2022/01/08 10:36:41;;;;;;;26.73;11.85;;;2.60;99.90;;;;;;5091757;28;20052;-73
2022/01/08 10:39:11;;;;;;;32.58;9.88;;;2.70;99.90;;;;;;5091286;28;20585;-73
2022/01/08 10:41:43;;;;;;;31.90;9.35;;;2.80;99.90;;;;;;5091576;28;20443;-72
2022/01/08 10:44:15;;;;;;;22.55;7.70;;;3.00;99.90;;;;;;5091067;28;20043;-72
2022/01/08 10:47:04;;;;;;;21.58;8.43;;;3.00;99.90;;;;;;5074966;28;20105;-72
2022/01/08 10:49:40;;;;;;;27.30;10.23;;;3.10;99.90;;;;;;5074611;28;20052;-72
2022/01/08 10:52:12;;;;;;;30.90;9.30;;;3.10;99.90;;;;;;5073956;28;20044;-73
2022/01/08 10:54:43;;;;;;;21.33;8.27;;;3.20;99.90;;;;;;5090971;28;20410;-73
2022/01/08 10:57:12;;;;;;;25.30;9.70;;;3.20;99.90;;;;;;5091143;28;20119;-73
2022/01/08 10:59:39;;;;;;;27.45;10.52;;;3.30;99.90;;;;;;5090737;28;20052;-71
2022/01/08 11:02:28;;;;;;;23.55;9.23;;;3.30;99.90;;;;;;5090686;28;20187;-71
2022/01/08 11:04:54;;;;;;;30.30;9.35;;;3.30;99.90;;;;;;5090707;28;20058;-71
2022/01/08 11:07:26;;;;;;;19.63;7.93;;;3.30;99.90;;;;;;5091965;28;20044;-72
2022/01/08 11:10:00;;;;;;;21.33;8.77;;;3.40;99.90;;;;;;5074046;28;20047;-71
2022/01/08 11:12:32;;;;;;;19.92;8.52;;;3.50;99.90;;;;;;5090941;28;20063;-71
2022/01/08 11:17:49;;;;;;;26.17;10.93;;;3.40;99.90;;;;;;5090941;28;20056;-72
2022/01/08 11:20:26;;;;;;;33.55;11.65;;;3.50;99.90;;;;;;5092575;28;20427;-72
2022/01/08 11:22:54;;;;;;;26.65;11.07;;;3.40;99.90;;;;;;5091051;28;20040;-72
2022/01/08 11:25:27;;;;;;;24.40;11.55;;;3.50;99.90;;;;;;5091691;28;20052;-72
2022/01/08 11:28:13;;;;;;;30.15;12.75;;;3.50;99.90;;;;;;5092212;28;20488;-72
2022/01/08 11:30:41;;;;;;;25.08;10.73;;;3.50;99.90;;;;;;5095601;28;20055;-72
2022/01/08 11:33:25;;;;;;;31.98;12.38;;;3.60;99.90;;;;;;5093960;28;20055;-72
2022/01/08 11:35:52;;;;;;;30.15;12.77;;;3.60;99.90;;;;;;5094964;28;20044;-72
2022/01/08 11:38:20;;;;;;;33.95;12.55;;;3.70;99.90;;;;;;5094499;28;20493;-72
2022/01/08 11:40:48;;;;;;;28.83;12.65;;;3.60;99.90;;;;;;5076823;28;20043;-71
2022/01/08 11:43:16;;;;;;;31.70;15.68;;;3.80;99.90;;;;;;5094227;28;20048;-72
2022/01/08 11:45:54;;;;;;;35.85;13.52;;;3.80;99.90;;;;;;5095521;28;20090;-72
2022/01/08 11:48:25;;;;;;;29.95;13.98;;;3.80;99.90;;;;;;5095930;28;20047;-71
2022/01/08 11:50:52;;;;;;;32.70;13.57;;;3.80;99.90;;;;;;5095877;28;20109;-71
2022/01/08 11:53:22;;;;;;;34.88;14.40;;;3.90;99.90;;;;;;5094369;28;20052;-72
2022/01/08 11:55:53;;;;;;;38.67;14.88;;;3.90;99.90;;;;;;5060918;28;20435;-73
2022/01/08 11:58:30;;;;;;;35.75;16.75;;;4.00;99.90;;;;;;5077845;28;20484;-72
2022/01/08 12:01:03;;;;;;;37.05;16.00;;;3.80;99.90;;;;;;5077446;28;20473;-72
2022/01/08 12:03:39;;;;;;;39.55;15.73;;;3.90;99.90;;;;;;5094098;28;20527;-72
2022/01/08 12:06:32;;;;;;;32.13;15.82;;;3.80;99.90;;;;;;5094199;28;20177;-72
2022/01/08 12:09:43;;;;;;;24.20;11.27;;;3.90;99.90;;;;;;5094894;28;20059;-72
2022/01/08 12:12:07;;;;;;;39.00;15.65;;;3.90;99.90;;;;;;5086116;28;20052;-71
2022/01/08 12:14:36;;;;;;;34.15;14.38;;;4.00;99.90;;;;;;5093585;28;20496;-71
2022/01/08 12:17:17;;;;;;;30.35;15.30;;;3.90;99.90;;;;;;5077058;28;20367;-71
2022/01/08 12:19:55;;;;;;;32.42;14.85;;;3.80;99.90;;;;;;5074861;28;20044;-72
2022/01/08 12:22:21;;;;;;;38.55;16.45;;;3.90;99.90;;;;;;5056669;28;20044;-72
2022/01/08 12:24:53;;;;;;;36.38;16.00;;;3.80;99.90;;;;;;5074470;28;20059;-73
2022/01/08 12:27:34;;;;;;;39.25;17.95;;;3.80;99.90;;;;;;5074732;28;20048;-72
2022/01/08 12:30:21;;;;;;;42.53;21.48;;;3.70;99.90;;;;;;5073019;28;20071;-72
2022/01/08 12:33:14;;;;;;;41.88;19.00;;;3.60;99.90;;;;;;5042559;28;20048;-71
2022/01/08 12:35:40;;;;;;;38.33;16.35;;;3.70;99.90;;;;;;5073139;28;20052;-70
2022/01/08 12:38:24;;;;;;;44.70;18.25;;;3.80;99.90;;;;;;5074070;28;20051;-71
2022/01/08 12:40:50;;;;;;;43.35;18.23;;;3.70;99.90;;;;;;5073508;28;20047;-71
2022/01/08 12:43:18;;;;;;;40.22;18.13;;;3.70;99.90;;;;;;5074061;28;20052;-72
2022/01/08 12:45:48;;;;;;;36.75;15.45;;;3.80;99.90;;;;;;5073149;28;20041;-73
2022/01/08 12:48:14;;;;;;;47.78;18.98;;;3.90;99.90;;;;;;5056577;28;20420;-70
2022/01/08 12:50:43;;;;;;;36.67;14.65;;;3.80;99.90;;;;;;5073127;28;20037;-70
2022/01/08 12:53:09;;;;;;;40.13;16.88;;;3.90;99.90;;;;;;5073224;28;20144;-71
2022/01/08 12:55:53;;;;;;;39.63;18.75;;;3.90;99.90;;;;;;5073936;28;20056;-70
2022/01/08 12:58:34;;;;;;;46.75;17.20;;;3.90;99.90;;;;;;5073499;28;20087;-71
2022/01/08 13:01:03;;;;;;;36.38;14.90;;;3.90;99.90;;;;;;5073936;28;20048;-71
2022/01/08 13:03:36;;;;;;;38.53;15.57;;;3.90;99.90;;;;;;5073717;28;20056;-71
2022/01/08 13:06:23;;;;;;;41.95;18.95;;;3.80;99.90;;;;;;5072449;28;20056;-71
2022/01/08 13:08:50;;;;;;;40.40;16.88;;;3.80;99.90;;;;;;5073131;28;20056;-71
2022/01/08 13:11:22;;;;;;;40.50;16.40;;;3.90;99.90;;;;;;5072467;28;20040;-72
2022/01/08 13:13:55;;;;;;;40.90;15.88;;;3.90;99.90;;;;;;5072627;28;20052;-72